sensor_id;sensor_type;location;lat;lon;timestamp;pressure;altitude;pressure_sealevel;temperature;humidity
78509;BME280;67802;50.846;7.958;2023-04-24T00:00:18;96470.50;;;19.93;37.33
78509;BME280;67802;50.846;7.958;2023-04-24T00:02:44;96466.91;;;19.94;37.21
78509;BME280;67802;50.846;7.958;2023-04-24T00:05:16;96456.50;;;19.93;37.20
78509;BME280;67802;50.846;7.958;2023-04-24T00:07:42;96454.84;;;19.92;37.13
78509;BME280;67802;50.846;7.958;2023-04-24T00:10:08;96459.31;;;19.91;37.12
78509;BME280;67802;50.846;7.958;2023-04-24T00:12:34;96456.66;;;19.91;37.15
78509;BME280;67802;50.846;7.958;2023-04-24T00:15:00;96462.91;;;19.90;37.32
78509;BME280;67802;50.846;7.958;2023-04-24T00:17:26;96458.63;;;19.89;37.14
78509;BME280;67802;50.846;7.958;2023-04-24T00:19:51;96457.78;;;19.89;37.37
78509;BME280;67802;50.846;7.958;2023-04-24T00:22:23;96456.94;;;19.88;37.21
78509;BME280;67802;50.846;7.958;2023-04-24T00:24:48;96456.28;;;19.86;37.24
78509;BME280;67802;50.846;7.958;2023-04-24T00:27:14;96451.00;;;19.86;37.34
78509;BME280;67802;50.846;7.958;2023-04-24T00:29:39;96446.72;;;19.85;37.24
78509;BME280;67802;50.846;7.958;2023-04-24T00:32:04;96451.19;;;19.84;37.33
78509;BME280;67802;50.846;7.958;2023-04-24T00:34:30;96450.34;;;19.84;37.32
78509;BME280;67802;50.846;7.958;2023-04-24T00:36:57;96447.03;;;19.82;37.29
78509;BME280;67802;50.846;7.958;2023-04-24T00:39:22;96449.69;;;19.82;37.18
78509;BME280;67802;50.846;7.958;2023-04-24T00:41:48;96448.03;;;19.81;37.40
78509;BME280;67802;50.846;7.958;2023-04-24T00:44:14;96446.38;;;19.80;37.44
78509;BME280;67802;50.846;7.958;2023-04-24T00:46:39;96444.72;;;19.79;37.29
78509;BME280;67802;50.846;7.958;2023-04-24T00:49:05;96432.53;;;19.78;37.50
78509;BME280;67802;50.846;7.958;2023-04-24T00:51:31;96431.72;;;19.77;37.27
78509;BME280;67802;50.846;7.958;2023-04-24T00:53:58;96431.72;;;19.77;37.32
78509;BME280;67802;50.846;7.958;2023-04-24T00:56:23;96431.88;;;19.76;37.50
78509;BME280;67802;50.846;7.958;2023-04-24T00:58:49;96418.03;;;19.73;37.26
78509;BME280;67802;50.846;7.958;2023-04-24T01:01:15;96430.22;;;19.75;37.48
78509;BME280;67802;50.846;7.958;2023-04-24T01:03:41;96418.03;;;19.73;37.33
78509;BME280;67802;50.846;7.958;2023-04-24T01:06:06;96425.25;;;19.71;37.56
78509;BME280;67802;50.846;7.958;2023-04-24T01:08:32;96428.72;;;19.72;37.38
78509;BME280;67802;50.846;7.958;2023-04-24T01:10:58;96424.44;;;19.71;37.38
78509;BME280;67802;50.846;7.958;2023-04-24T01:13:23;96430.53;;;19.71;37.46
78509;BME280;67802;50.846;7.958;2023-04-24T01:15:49;96429.84;;;19.69;37.36
78509;BME280;67802;50.846;7.958;2023-04-24T01:18:15;96432.50;;;19.69;37.54
78509;BME280;67802;50.846;7.958;2023-04-24T01:20:43;96426.41;;;19.69;37.30
78509;BME280;67802;50.846;7.958;2023-04-24T01:23:10;96432.50;;;19.69;37.38
78509;BME280;67802;50.846;7.958;2023-04-24T01:25:36;96430.84;;;19.68;37.58
78509;BME280;67802;50.846;7.958;2023-04-24T01:28:02;96427.41;;;19.68;37.38
78509;BME280;67802;50.846;7.958;2023-04-24T01:30:28;96433.47;;;19.68;37.47
78509;BME280;67802;50.846;7.958;2023-04-24T01:32:55;96431.81;;;19.67;37.25
78509;BME280;67802;50.846;7.958;2023-04-24T01:35:20;96420.47;;;19.67;37.42
78509;BME280;67802;50.846;7.958;2023-04-24T01:37:46;96424.91;;;19.66;37.44
78509;BME280;67802;50.846;7.958;2023-04-24T01:40:11;96421.28;;;19.67;37.46
78509;BME280;67802;50.846;7.958;2023-04-24T01:42:37;96409.09;;;19.66;37.46
78509;BME280;67802;50.846;7.958;2023-04-24T01:45:04;96415.22;;;19.67;37.43
78509;BME280;67802;50.846;7.958;2023-04-24T01:47:31;96404.66;;;19.67;37.46
78509;BME280;67802;50.846;7.958;2023-04-24T01:49:56;96411.72;;;19.66;37.45
78509;BME280;67802;50.846;7.958;2023-04-24T01:52:22;96403.84;;;19.66;37.44
78509;BME280;67802;50.846;7.958;2023-04-24T01:54:47;96409.09;;;19.66;37.50
78509;BME280;67802;50.846;7.958;2023-04-24T01:57:13;96417.00;;;19.66;37.51
78509;BME280;67802;50.846;7.958;2023-04-24T01:59:39;96412.41;;;19.68;37.25
78509;BME280;67802;50.846;7.958;2023-04-24T02:02:05;96417.00;;;19.66;37.36
78509;BME280;67802;50.846;7.958;2023-04-24T02:04:30;96429.19;;;19.67;37.20
78509;BME280;67802;50.846;7.958;2023-04-24T02:06:55;96430.03;;;19.68;37.38
78509;BME280;67802;50.846;7.958;2023-04-24T02:09:21;96428.22;;;19.68;37.50
78509;BME280;67802;50.846;7.958;2023-04-24T02:11:46;96440.41;;;19.69;37.36
78509;BME280;67802;50.846;7.958;2023-04-24T02:14:12;96442.03;;;19.70;37.28
78509;BME280;67802;50.846;7.958;2023-04-24T02:16:37;96435.00;;;19.71;37.36
78509;BME280;67802;50.846;7.958;2023-04-24T02:19:02;96431.50;;;19.70;37.38
78509;BME280;67802;50.846;7.958;2023-04-24T02:21:28;96424.44;;;19.71;37.20
78509;BME280;67802;50.846;7.958;2023-04-24T02:23:54;96433.16;;;19.71;37.19
78509;BME280;67802;50.846;7.958;2023-04-24T02:26:19;96423.47;;;19.72;37.33
78509;BME280;67802;50.846;7.958;2023-04-24T02:28:44;96426.91;;;19.72;37.26
78509;BME280;67802;50.846;7.958;2023-04-24T02:31:10;96421.63;;;19.72;37.13
78509;BME280;67802;50.846;7.958;2023-04-24T02:33:35;96414.56;;;19.73;37.16
78509;BME280;67802;50.846;7.958;2023-04-24T02:36:01;96423.28;;;19.73;37.32
78509;BME280;67802;50.846;7.958;2023-04-24T02:38:27;96416.22;;;19.74;37.21
78509;BME280;67802;50.846;7.958;2023-04-24T02:40:52;96423.28;;;19.73;37.30
78509;BME280;67802;50.846;7.958;2023-04-24T02:43:17;96423.16;;;19.75;37.21
78509;BME280;67802;50.846;7.958;2023-04-24T02:45:43;96423.16;;;19.75;37.09
78509;BME280;67802;50.846;7.958;2023-04-24T02:48:08;96414.41;;;19.75;37.31
78509;BME280;67802;50.846;7.958;2023-04-24T02:50:33;96429.22;;;19.76;37.21
78509;BME280;67802;50.846;7.958;2023-04-24T02:52:59;96436.16;;;19.77;37.24
78509;BME280;67802;50.846;7.958;2023-04-24T02:55:24;96430.06;;;19.76;37.01
78509;BME280;67802;50.846;7.958;2023-04-24T02:57:50;96431.88;;;19.76;37.18
78509;BME280;67802;50.846;7.958;2023-04-24T03:00:15;96439.78;;;19.76;37.31
78509;BME280;67802;50.846;7.958;2023-04-24T03:02:41;96455.56;;;19.76;37.21
78509;BME280;67802;50.846;7.958;2023-04-24T03:05:06;96455.56;;;19.76;37.14
78509;BME280;67802;50.846;7.958;2023-04-24T03:07:32;96450.31;;;19.76;37.12
78509;BME280;67802;50.846;7.958;2023-04-24T03:09:58;96464.47;;;19.75;37.24
78509;BME280;67802;50.846;7.958;2023-04-24T03:12:24;96458.22;;;19.76;37.22
78509;BME280;67802;50.846;7.958;2023-04-24T03:14:50;96441.72;;;19.73;37.34
78509;BME280;67802;50.846;7.958;2023-04-24T03:17:15;96450.47;;;19.74;37.20
78509;BME280;67802;50.846;7.958;2023-04-24T03:19:40;96435.66;;;19.73;37.11
78509;BME280;67802;50.846;7.958;2023-04-24T03:22:06;96451.47;;;19.73;37.29
78509;BME280;67802;50.846;7.958;2023-04-24T03:24:31;96440.94;;;19.73;37.30
78509;BME280;67802;50.846;7.958;2023-04-24T03:26:57;96458.53;;;19.72;37.16
78509;BME280;67802;50.846;7.958;2023-04-24T03:29:22;96458.53;;;19.72;37.19
78509;BME280;67802;50.846;7.958;2023-04-24T03:31:48;96461.16;;;19.72;37.09
78509;BME280;67802;50.846;7.958;2023-04-24T03:34:13;96463.78;;;19.72;37.21
78509;BME280;67802;50.846;7.958;2023-04-24T03:36:38;96467.41;;;19.71;37.07
78509;BME280;67802;50.846;7.958;2023-04-24T03:39:04;96464.78;;;19.71;37.14
78509;BME280;67802;50.846;7.958;2023-04-24T03:41:29;96471.03;;;19.70;37.10
78509;BME280;67802;50.846;7.958;2023-04-24T03:43:55;96473.66;;;19.70;37.05
78509;BME280;67802;50.846;7.958;2023-04-24T03:46:21;96478.94;;;19.70;37.23
78509;BME280;67802;50.846;7.958;2023-04-24T03:48:46;96482.56;;;19.69;37.03
78509;BME280;67802;50.846;7.958;2023-04-24T03:51:11;96478.13;;;19.70;37.06
78509;BME280;67802;50.846;7.958;2023-04-24T03:53:37;96483.53;;;19.68;37.39
78509;BME280;67802;50.846;7.958;2023-04-24T03:56:02;96498.34;;;19.69;37.15
78509;BME280;67802;50.846;7.958;2023-04-24T03:58:27;96500.31;;;19.67;37.13
78509;BME280;67802;50.846;7.958;2023-04-24T04:00:53;96507.25;;;19.68;37.05
78509;BME280;67802;50.846;7.958;2023-04-24T04:03:18;96512.50;;;19.68;37.18
78509;BME280;67802;50.846;7.958;2023-04-24T04:05:43;96503.78;;;19.68;37.13
78509;BME280;67802;50.846;7.958;2023-04-24T04:08:08;96505.59;;;19.67;36.98
78509;BME280;67802;50.846;7.958;2023-04-24T04:10:34;96515.31;;;19.67;36.99
78509;BME280;67802;50.846;7.958;2023-04-24T04:12:59;96513.66;;;19.66;37.12
78509;BME280;67802;50.846;7.958;2023-04-24T04:15:25;96511.16;;;19.64;37.08
78509;BME280;67802;50.846;7.958;2023-04-24T04:17:50;96516.44;;;19.64;36.95
78509;BME280;67802;50.846;7.958;2023-04-24T04:20:15;96512.16;;;19.63;36.98
78509;BME280;67802;50.846;7.958;2023-04-24T04:22:41;96514.78;;;19.63;37.05
78509;BME280;67802;50.846;7.958;2023-04-24T04:25:06;96513.13;;;19.62;37.09
78509;BME280;67802;50.846;7.958;2023-04-24T04:27:33;96511.47;;;19.61;37.20
78509;BME280;67802;50.846;7.958;2023-04-24T04:30:00;96516.75;;;19.61;37.10
78509;BME280;67802;50.846;7.958;2023-04-24T04:32:31;96521.19;;;19.61;37.17
78509;BME280;67802;50.846;7.958;2023-04-24T04:34:58;96528.44;;;19.58;37.01
78509;BME280;67802;50.846;7.958;2023-04-24T04:37:23;96537.19;;;19.59;37.06
78509;BME280;67802;50.846;7.958;2023-04-24T04:39:48;96535.53;;;19.58;37.17
78509;BME280;67802;50.846;7.958;2023-04-24T04:42:14;96531.22;;;19.57;37.05
78509;BME280;67802;50.846;7.958;2023-04-24T04:44:40;96534.84;;;19.56;37.15
78509;BME280;67802;50.846;7.958;2023-04-24T04:47:05;96544.53;;;19.55;36.97
78509;BME280;67802;50.846;7.958;2023-04-24T04:49:32;96535.84;;;19.55;37.00
78509;BME280;67802;50.846;7.958;2023-04-24T04:51:57;96536.81;;;19.54;37.00
78509;BME280;67802;50.846;7.958;2023-04-24T04:54:23;96534.19;;;19.54;37.20
78509;BME280;67802;50.846;7.958;2023-04-24T04:56:51;96540.44;;;19.53;37.20
78509;BME280;67802;50.846;7.958;2023-04-24T04:59:16;96537.94;;;19.51;37.27
78509;BME280;67802;50.846;7.958;2023-04-24T05:01:42;96547.66;;;19.51;37.07
78509;BME280;67802;50.846;7.958;2023-04-24T05:04:07;96555.56;;;19.51;37.16
78509;BME280;67802;50.846;7.958;2023-04-24T05:06:32;96555.56;;;19.51;37.17
78509;BME280;67802;50.846;7.958;2023-04-24T05:08:58;96556.53;;;19.50;37.04
78509;BME280;67802;50.846;7.958;2023-04-24T05:11:23;96562.78;;;19.49;37.36
78509;BME280;67802;50.846;7.958;2023-04-24T05:13:49;96553.22;;;19.48;37.04
78509;BME280;67802;50.846;7.958;2023-04-24T05:16:14;96561.94;;;19.48;37.18
78509;BME280;67802;50.846;7.958;2023-04-24T05:18:39;96557.66;;;19.47;37.14
78509;BME280;67802;50.846;7.958;2023-04-24T05:21:05;96556.84;;;19.47;37.11
78509;BME280;67802;50.846;7.958;2023-04-24T05:23:30;96552.56;;;19.46;37.13
78509;BME280;67802;50.846;7.958;2023-04-24T05:25:56;96560.44;;;19.46;37.19
78509;BME280;67802;50.846;7.958;2023-04-24T05:28:21;96560.59;;;19.44;37.12
78509;BME280;67802;50.846;7.958;2023-04-24T05:30:46;96566.84;;;19.43;37.11
78509;BME280;67802;50.846;7.958;2023-04-24T05:33:12;96575.59;;;19.43;37.10
78509;BME280;67802;50.846;7.958;2023-04-24T05:35:40;96572.09;;;19.43;37.18
78509;BME280;67802;50.846;7.958;2023-04-24T05:38:10;96566.03;;;19.42;37.29
78509;BME280;67802;50.846;7.958;2023-04-24T05:40:36;96573.75;;;19.44;37.08
78509;BME280;67802;50.846;7.958;2023-04-24T05:43:01;96572.94;;;19.43;37.13
78509;BME280;67802;50.846;7.958;2023-04-24T05:45:26;96577.22;;;19.45;37.17
78509;BME280;67802;50.846;7.958;2023-04-24T05:47:52;96577.22;;;19.45;36.63
78509;BME280;67802;50.846;7.958;2023-04-24T05:50:17;96571.00;;;19.46;37.06
78509;BME280;67802;50.846;7.958;2023-04-24T05:52:43;96578.03;;;19.45;37.09
78509;BME280;67802;50.846;7.958;2023-04-24T05:55:08;96576.25;;;19.46;36.99
78509;BME280;67802;50.846;7.958;2023-04-24T05:57:33;96581.53;;;19.46;37.16
78509;BME280;67802;50.846;7.958;2023-04-24T05:59:59;96590.41;;;19.45;37.12
78509;BME280;67802;50.846;7.958;2023-04-24T06:02:24;96579.88;;;19.45;37.14
78509;BME280;67802;50.846;7.958;2023-04-24T06:04:49;96588.75;;;19.43;36.93
78509;BME280;67802;50.846;7.958;2023-04-24T06:07:15;96584.28;;;19.44;37.03
78509;BME280;67802;50.846;7.958;2023-04-24T06:09:40;96588.75;;;19.43;37.11
78509;BME280;67802;50.846;7.958;2023-04-24T06:12:05;96581.66;;;19.44;37.02
78509;BME280;67802;50.846;7.958;2023-04-24T06:14:33;96584.28;;;19.44;37.07
78509;BME280;67802;50.846;7.958;2023-04-24T06:16:58;96590.41;;;19.45;36.92
78509;BME280;67802;50.846;7.958;2023-04-24T06:19:23;96597.31;;;19.46;36.69
78509;BME280;67802;50.846;7.958;2023-04-24T06:21:49;96592.06;;;19.46;36.99
78509;BME280;67802;50.846;7.958;2023-04-24T06:24:14;96587.59;;;19.46;36.86
78509;BME280;67802;50.846;7.958;2023-04-24T06:26:41;96588.44;;;19.47;36.88
78509;BME280;67802;50.846;7.958;2023-04-24T06:29:06;96598.00;;;19.48;37.04
78509;BME280;67802;50.846;7.958;2023-04-24T06:31:32;96593.72;;;19.47;36.82
78509;BME280;67802;50.846;7.958;2023-04-24T06:34:02;96591.88;;;19.47;36.92
78509;BME280;67802;50.846;7.958;2023-04-24T06:36:28;96590.09;;;19.48;36.82
78509;BME280;67802;50.846;7.958;2023-04-24T06:38:53;96582.88;;;19.50;36.91
78509;BME280;67802;50.846;7.958;2023-04-24T06:41:19;96592.44;;;19.51;36.89
78509;BME280;67802;50.846;7.958;2023-04-24T06:43:44;96599.47;;;19.50;36.90
78509;BME280;67802;50.846;7.958;2023-04-24T06:46:10;96584.53;;;19.51;36.84
78509;BME280;67802;50.846;7.958;2023-04-24T06:48:35;96586.19;;;19.52;36.90
78509;BME280;67802;50.846;7.958;2023-04-24T06:51:00;96571.19;;;19.52;36.67
78509;BME280;67802;50.846;7.958;2023-04-24T06:53:26;96575.66;;;19.52;36.85
78509;BME280;67802;50.846;7.958;2023-04-24T06:55:52;96572.03;;;19.53;36.70
78509;BME280;67802;50.846;7.958;2023-04-24T06:58:17;96572.84;;;19.53;36.68
78509;BME280;67802;50.846;7.958;2023-04-24T07:00:43;96571.06;;;19.54;36.70
78509;BME280;67802;50.846;7.958;2023-04-24T07:03:08;96569.22;;;19.54;36.67
78509;BME280;67802;50.846;7.958;2023-04-24T07:05:33;96571.72;;;19.56;36.84
78509;BME280;67802;50.846;7.958;2023-04-24T07:08:00;96577.00;;;19.56;36.80
78509;BME280;67802;50.846;7.958;2023-04-24T07:10:25;96581.28;;;19.57;36.76
78509;BME280;67802;50.846;7.958;2023-04-24T07:12:54;96568.13;;;19.57;36.60
78509;BME280;67802;50.846;7.958;2023-04-24T07:15:19;96570.75;;;19.57;36.62
78509;BME280;67802;50.846;7.958;2023-04-24T07:17:44;96562.00;;;19.56;36.75
78509;BME280;67802;50.846;7.958;2023-04-24T07:20:10;96561.03;;;19.57;36.70
78509;BME280;67802;50.846;7.958;2023-04-24T07:22:37;96565.47;;;19.57;36.54
78509;BME280;67802;50.846;7.958;2023-04-24T07:25:03;96561.88;;;19.58;36.69
78509;BME280;67802;50.846;7.958;2023-04-24T07:27:28;96566.28;;;19.57;36.62
78509;BME280;67802;50.846;7.958;2023-04-24T07:29:54;96580.31;;;19.58;36.60
78509;BME280;67802;50.846;7.958;2023-04-24T07:32:19;96564.50;;;19.58;36.64
78509;BME280;67802;50.846;7.958;2023-04-24T07:34:45;96569.75;;;19.58;36.63
78509;BME280;67802;50.846;7.958;2023-04-24T07:37:11;96569.75;;;19.58;36.57
78509;BME280;67802;50.846;7.958;2023-04-24T07:39:36;96569.75;;;19.58;36.67
78509;BME280;67802;50.846;7.958;2023-04-24T07:42:01;96585.56;;;19.58;36.50
78509;BME280;67802;50.846;7.958;2023-04-24T07:44:27;96579.47;;;19.57;36.55
78509;BME280;67802;50.846;7.958;2023-04-24T07:46:52;96592.63;;;19.57;36.55
78509;BME280;67802;50.846;7.958;2023-04-24T07:49:18;96589.19;;;19.57;36.50
78509;BME280;67802;50.846;7.958;2023-04-24T07:51:44;96585.72;;;19.56;36.61
78509;BME280;67802;50.846;7.958;2023-04-24T07:54:10;96596.09;;;19.58;36.61
78509;BME280;67802;50.846;7.958;2023-04-24T07:56:35;96598.75;;;19.58;36.64
78509;BME280;67802;50.846;7.958;2023-04-24T07:59:04;96607.63;;;19.57;36.54
78509;BME280;67802;50.846;7.958;2023-04-24T08:01:29;96612.88;;;19.57;36.46
78509;BME280;67802;50.846;7.958;2023-04-24T08:03:54;96613.88;;;19.56;36.64
78509;BME280;67802;50.846;7.958;2023-04-24T08:06:20;96620.78;;;19.57;36.62
78509;BME280;67802;50.846;7.958;2023-04-24T08:08:46;96619.13;;;19.56;36.45
78509;BME280;67802;50.846;7.958;2023-04-24T08:11:11;96620.78;;;19.57;36.50
78509;BME280;67802;50.846;7.958;2023-04-24T08:13:36;96627.84;;;19.56;36.54
78509;BME280;67802;50.846;7.958;2023-04-24T08:16:01;96632.31;;;19.56;36.43
78509;BME280;67802;50.846;7.958;2023-04-24T08:18:27;96636.59;;;19.57;36.54
78509;BME280;67802;50.846;7.958;2023-04-24T08:20:52;96637.56;;;19.56;36.59
78509;BME280;67802;50.846;7.958;2023-04-24T08:23:17;96642.00;;;19.55;36.47
78509;BME280;67802;50.846;7.958;2023-04-24T08:25:43;96639.38;;;19.55;36.49
78509;BME280;67802;50.846;7.958;2023-04-24T08:28:08;96644.63;;;19.55;36.43
78509;BME280;67802;50.846;7.958;2023-04-24T08:30:34;96649.09;;;19.55;36.58
78509;BME280;67802;50.846;7.958;2023-04-24T08:32:59;96645.47;;;19.56;36.55
78509;BME280;67802;50.846;7.958;2023-04-24T08:35:25;96649.09;;;19.55;36.32
78509;BME280;67802;50.846;7.958;2023-04-24T08:37:52;96654.34;;;19.55;36.59
78509;BME280;67802;50.846;7.958;2023-04-24T08:40:18;96652.69;;;19.54;36.46
78509;BME280;67802;50.846;7.958;2023-04-24T08:42:46;96657.97;;;19.54;36.62
78509;BME280;67802;50.846;7.958;2023-04-24T08:45:12;96650.22;;;19.52;36.58
78509;BME280;67802;50.846;7.958;2023-04-24T08:47:39;96651.03;;;19.53;36.59
78509;BME280;67802;50.846;7.958;2023-04-24T08:50:06;96659.94;;;19.52;36.51
78509;BME280;67802;50.846;7.958;2023-04-24T08:52:33;96670.47;;;19.52;36.54
78509;BME280;67802;50.846;7.958;2023-04-24T08:55:00;96659.94;;;19.52;36.48
78509;BME280;67802;50.846;7.958;2023-04-24T08:57:26;96675.72;;;19.52;36.61
78509;BME280;67802;50.846;7.958;2023-04-24T08:59:53;96681.13;;;19.50;36.59
78509;BME280;67802;50.846;7.958;2023-04-24T09:02:18;96677.81;;;19.48;36.63
78509;BME280;67802;50.846;7.958;2023-04-24T09:04:44;96682.97;;;19.50;36.61
78509;BME280;67802;50.846;7.958;2023-04-24T09:07:12;96687.38;;;19.49;36.59
78509;BME280;67802;50.846;7.958;2023-04-24T09:09:38;96687.25;;;19.51;36.64
78509;BME280;67802;50.846;7.958;2023-04-24T09:12:04;96704.69;;;19.52;36.43
78509;BME280;67802;50.846;7.958;2023-04-24T09:14:29;96709.81;;;19.53;36.62
78509;BME280;67802;50.846;7.958;2023-04-24T09:16:57;96710.66;;;19.54;36.70
78509;BME280;67802;50.846;7.958;2023-04-24T09:19:22;96711.34;;;19.56;36.66
78509;BME280;67802;50.846;7.958;2023-04-24T09:21:48;96709.38;;;19.58;36.76
78509;BME280;67802;50.846;7.958;2023-04-24T09:24:18;96719.75;;;19.60;36.67
78509;BME280;67802;50.846;7.958;2023-04-24T09:26:46;96722.38;;;19.60;36.79
78509;BME280;67802;50.846;7.958;2023-04-24T09:29:15;96729.13;;;19.62;36.62
78509;BME280;67802;50.846;7.958;2023-04-24T09:31:41;96744.94;;;19.62;36.70
78509;BME280;67802;50.846;7.958;2023-04-24T09:34:07;96751.88;;;19.63;37.07
78509;BME280;67802;50.846;7.958;2023-04-24T09:36:38;96735.09;;;19.64;36.81
78509;BME280;67802;50.846;7.958;2023-04-24T09:39:05;96755.19;;;19.65;36.75
78509;BME280;67802;50.846;7.958;2023-04-24T09:41:33;96759.47;;;19.66;36.91
78509;BME280;67802;50.846;7.958;2023-04-24T09:44:12;96758.50;;;19.67;36.88
78509;BME280;67802;50.846;7.958;2023-04-24T09:46:37;96770.69;;;19.68;36.79
78509;BME280;67802;50.846;7.958;2023-04-24T09:49:12;96791.78;;;19.68;36.71
78509;BME280;67802;50.846;7.958;2023-04-24T09:51:38;96797.88;;;19.69;36.67
78509;BME280;67802;50.846;7.958;2023-04-24T09:54:04;96804.94;;;19.68;36.63
78509;BME280;67802;50.846;7.958;2023-04-24T09:56:35;96806.75;;;19.68;36.80
78509;BME280;67802;50.846;7.958;2023-04-24T09:59:05;96813.69;;;19.69;36.75
78509;BME280;67802;50.846;7.958;2023-04-24T10:01:32;96811.88;;;19.69;36.67
78509;BME280;67802;50.846;7.958;2023-04-24T10:03:57;96817.81;;;19.71;36.76
78509;BME280;67802;50.846;7.958;2023-04-24T10:06:30;96832.81;;;19.71;36.61
78509;BME280;67802;50.846;7.958;2023-04-24T10:08:56;96828.34;;;19.71;36.64
78509;BME280;67802;50.846;7.958;2023-04-24T10:11:25;96826.56;;;19.72;36.49
78509;BME280;67802;50.846;7.958;2023-04-24T10:13:52;96818.50;;;19.73;36.51
78509;BME280;67802;50.846;7.958;2023-04-24T10:16:18;96831.69;;;19.73;36.46
78509;BME280;67802;50.846;7.958;2023-04-24T10:18:44;96828.91;;;19.75;36.56
78509;BME280;67802;50.846;7.958;2023-04-24T10:21:10;96835.00;;;19.76;36.63
78509;BME280;67802;50.846;7.958;2023-04-24T10:23:35;96840.94;;;19.78;36.61
78509;BME280;67802;50.846;7.958;2023-04-24T10:26:01;96845.25;;;19.79;36.44
78509;BME280;67802;50.846;7.958;2023-04-24T10:28:27;96838.00;;;19.81;36.51
78509;BME280;67802;50.846;7.958;2023-04-24T10:30:54;96839.69;;;19.82;36.47
78509;BME280;67802;50.846;7.958;2023-04-24T10:33:21;96835.94;;;19.84;36.39
78509;BME280;67802;50.846;7.958;2023-04-24T10:35:48;96854.22;;;19.86;36.50
78509;BME280;67802;50.846;7.958;2023-04-24T10:38:21;96851.56;;;19.86;36.37
78509;BME280;67802;50.846;7.958;2023-04-24T10:40:49;96841.03;;;19.86;36.39
78509;BME280;67802;50.846;7.958;2023-04-24T10:43:17;96847.97;;;19.87;36.41
78509;BME280;67802;50.846;7.958;2023-04-24T10:46:03;96850.75;;;19.85;36.31
78509;BME280;67802;50.846;7.958;2023-04-24T10:48:29;96842.59;;;19.79;36.26
78509;BME280;67802;50.846;7.958;2023-04-24T10:50:54;96866.63;;;19.76;36.27
78509;BME280;67802;50.846;7.958;2023-04-24T10:53:27;96866.91;;;19.72;36.17
78509;BME280;67802;50.846;7.958;2023-04-24T10:55:57;96865.25;;;19.71;36.42
78509;BME280;67802;50.846;7.958;2023-04-24T10:58:24;96872.56;;;19.78;36.42
78509;BME280;67802;50.846;7.958;2023-04-24T11:00:57;96868.53;;;19.83;36.56
78509;BME280;67802;50.846;7.958;2023-04-24T11:03:28;96880.56;;;19.86;36.53
78509;BME280;67802;50.846;7.958;2023-04-24T11:06:01;96885.56;;;19.89;36.61
78509;BME280;67802;50.846;7.958;2023-04-24T11:08:46;96887.91;;;19.92;36.52
78509;BME280;67802;50.846;7.958;2023-04-24T11:11:15;96885.13;;;19.94;36.69
78509;BME280;67802;50.846;7.958;2023-04-24T11:14:00;96889.28;;;19.96;36.66
78509;BME280;67802;50.846;7.958;2023-04-24T11:16:43;96892.59;;;19.98;36.75
78509;BME280;67802;50.846;7.958;2023-04-24T11:21:44;96904.81;;;19.99;36.83
78509;BME280;67802;50.846;7.958;2023-04-24T11:34:53;96895.03;;;20.10;36.52
78509;BME280;67802;50.846;7.958;2023-04-24T11:37:19;96910.53;;;20.13;36.47
78509;BME280;67802;50.846;7.958;2023-04-24T11:39:45;96903.28;;;20.15;36.62
78509;BME280;67802;50.846;7.958;2023-04-24T11:42:14;96914.50;;;20.17;36.39
78509;BME280;67802;50.846;7.958;2023-04-24T11:44:41;96913.53;;;20.18;36.47
78509;BME280;67802;50.846;7.958;2023-04-24T11:47:08;96915.50;;;20.16;36.43
78509;BME280;67802;50.846;7.958;2023-04-24T11:49:33;96922.41;;;20.17;36.38
78509;BME280;67802;50.846;7.958;2023-04-24T11:52:00;96924.09;;;20.18;36.43
78509;BME280;67802;50.846;7.958;2023-04-24T11:54:26;96917.16;;;20.17;36.43
78509;BME280;67802;50.846;7.958;2023-04-24T11:56:52;96931.00;;;20.19;36.44
78509;BME280;67802;50.846;7.958;2023-04-24T11:59:17;96921.91;;;20.13;36.25
78509;BME280;67802;50.846;7.958;2023-04-24T12:01:46;96919.44;;;20.12;35.92
78509;BME280;67802;50.846;7.958;2023-04-24T12:04:13;96927.34;;;20.12;36.24
78509;BME280;67802;50.846;7.958;2023-04-24T12:06:38;96925.22;;;20.15;36.18
78509;BME280;67802;50.846;7.958;2023-04-24T12:09:04;96931.00;;;20.19;36.20
78509;BME280;67802;50.846;7.958;2023-04-24T12:11:29;96922.81;;;20.22;36.20
78509;BME280;67802;50.846;7.958;2023-04-24T12:13:55;96928.75;;;20.24;36.16
78509;BME280;67802;50.846;7.958;2023-04-24T12:16:20;96929.59;;;20.25;35.99
78509;BME280;67802;50.846;7.958;2023-04-24T12:18:46;96948.06;;;20.25;36.18
78509;BME280;67802;50.846;7.958;2023-04-24T12:21:19;96944.59;;;20.24;36.20
78509;BME280;67802;50.846;7.958;2023-04-24T12:23:45;96948.19;;;20.23;36.18
78509;BME280;67802;50.846;7.958;2023-04-24T12:26:12;96958.75;;;20.23;36.13
78509;BME280;67802;50.846;7.958;2023-04-24T12:28:38;96955.28;;;20.23;36.16
78509;BME280;67802;50.846;7.958;2023-04-24T12:31:04;96965.97;;;20.21;36.19
78509;BME280;67802;50.846;7.958;2023-04-24T12:33:35;96971.25;;;20.21;36.15
78509;BME280;67802;50.846;7.958;2023-04-24T12:36:00;96964.31;;;20.20;36.22
78509;BME280;67802;50.846;7.958;2023-04-24T12:38:27;96965.97;;;20.21;36.09
78509;BME280;67802;50.846;7.958;2023-04-24T12:41:08;96969.47;;;20.22;36.18
78509;BME280;67802;50.846;7.958;2023-04-24T12:43:35;96978.19;;;20.22;36.20
78509;BME280;67802;50.846;7.958;2023-04-24T12:46:00;96967.63;;;20.22;36.19
78509;BME280;67802;50.846;7.958;2023-04-24T12:48:26;96970.28;;;20.22;36.09
78509;BME280;67802;50.846;7.958;2023-04-24T12:50:52;96968.47;;;20.23;36.10
78509;BME280;67802;50.846;7.958;2023-04-24T12:53:17;96985.13;;;20.23;36.11
78509;BME280;67802;50.846;7.958;2023-04-24T12:55:43;96983.47;;;20.22;36.03
78509;BME280;67802;50.846;7.958;2023-04-24T12:58:09;96978.19;;;20.22;35.96
78509;BME280;67802;50.846;7.958;2023-04-24T13:00:35;96986.78;;;20.24;36.11
78509;BME280;67802;50.846;7.958;2023-04-24T13:03:01;96990.09;;;20.26;36.05
78509;BME280;67802;50.846;7.958;2023-04-24T13:05:27;96989.00;;;20.29;35.95
78509;BME280;67802;50.846;7.958;2023-04-24T13:07:52;96995.75;;;20.31;36.12